Terminal Aerodrome Forecast
Issued by NWS Charleston, WV

Current Version | Previous Version | Graphics & Text | Print | Product List | Glossary On
Versions: 1 2 3 4 5 6 7 8 9 10 11 12 13 14 15 16 17 18 19 20 21 22 23 24 25
000
FTUS41 KRLX 261000 AAB
TAFBKW
TAF AMD
KBKW 261048Z 2611/2706 00000KT P6SM SCT028 SCT120
      TEMPO 2611/2613 BKN028
     FM261500 23007KT P6SM SCT045
     FM270400 19002KT P6SM BKN100=

USA.gov is the U.S. government's official web portal to all federal, state and local government web resources and services.